Time;durP1;ratioP1;P1;durP2;ratioP2;P2;SDS_P1;SDS_P2;PMS_P1;PMS_P2;Temp;Humidity;BMP_temperature;BMP_pressure;BME280_temperature;BME280_humidity;BME280_pressure;Samples;Min_cycle;Max_cycle;Signal;HPM_P1;HPM_P2
2021/04/12 00:02:03;;;;;;;;;;;6.20;99.90;;;6.36;69.68;102157.13;5073509;28;19926;-70
2021/04/12 00:04:36;;;;;;;;;;;6.30;99.90;;;6.50;70.00;102177.69;5073481;28;19920;-70
2021/04/12 00:07:07;;;;;;;;;;;6.30;99.90;;;6.45;69.96;102174.00;5073716;28;20294;-70
2021/04/12 00:09:38;;;;;;;;;;;6.30;99.90;;;6.42;70.69;102187.06;5073534;28;19924;-70
2021/04/12 00:12:09;;;;;;;;;;;6.30;99.90;;;6.46;70.53;102191.56;5073439;28;19924;-70
2021/04/12 00:14:40;;;;;;;;;;;6.30;99.90;;;6.47;69.57;102182.81;5072097;28;19920;-70
2021/04/12 00:17:12;;;;;;;;;;;6.30;99.90;;;6.48;68.17;102192.53;5073576;28;19928;-70
2021/04/12 00:19:48;;;;;;;;;;;6.40;99.90;;;6.43;67.63;102175.72;5073167;28;19943;-70
2021/04/12 00:22:20;;;;;;;;;;;6.40;99.90;;;6.54;67.48;102185.75;5073174;28;20386;-70
2021/04/12 00:24:51;;;;;;;;;;;6.50;99.90;;;6.58;67.22;102179.72;5073220;28;19979;-70
2021/04/12 00:27:21;;;;;;;;;;;6.50;99.90;;;6.58;67.54;102179.72;5073391;28;19924;-70
2021/04/12 00:29:55;;;;;;;;;;;6.50;99.90;;;6.59;67.94;102188.50;5073765;28;19921;-70
2021/04/12 00:32:26;;;;;;;;;;;6.50;99.90;;;6.43;67.28;102167.84;5071988;28;19931;-70
2021/04/12 00:35:01;;;;;;;;;;;6.40;99.90;;;6.44;67.47;102172.22;5073205;28;19920;-70
2021/04/12 00:37:31;;;;;;;;;;;6.40;99.90;;;6.37;67.87;102179.00;5072816;28;19925;-70
2021/04/12 00:40:05;;;;;;;;;;;6.30;99.90;;;6.11;67.99;102144.00;5073389;28;20266;-70
2021/04/12 00:43:04;;;;;;;;;;;6.20;99.90;;;6.22;68.07;102174.16;5073030;28;20042;-70
2021/04/12 00:45:38;;;;;;;;;;;6.20;99.90;;;6.22;67.88;102184.66;5067836;28;19920;-70
2021/04/12 00:48:17;;;;;;;;;;;6.10;99.90;;;6.27;68.03;102195.34;5073015;28;19928;-70
2021/04/12 00:50:49;;;;;;;;;;;6.10;99.90;;;6.19;68.40;102176.66;5071933;28;20393;-70
2021/04/12 00:53:28;;;;;;;;;;;6.10;99.90;;;6.34;68.43;102190.34;5071837;28;19927;-70
2021/04/12 00:55:59;;;;;;;;;;;6.10;99.90;;;6.34;68.67;102192.06;5071848;28;19924;-70
2021/04/12 00:58:35;;;;;;;;;;;6.10;99.90;;;6.51;68.90;102184.72;5071582;28;19920;-70
2021/04/12 01:01:21;;;;;;;;;;;6.20;99.90;;;6.50;68.23;102196.09;5072950;28;20468;-70
2021/04/12 01:04:03;;;;;;;;;;;6.30;99.90;;;6.55;68.30;102186.59;5072618;28;20365;-70
2021/04/12 01:06:49;;;;;;;;;;;6.40;99.90;;;6.60;69.75;102192.94;5071566;28;20324;-70
2021/04/12 01:09:57;;;;;;;;;;;6.40;99.90;;;6.77;68.55;102200.53;5071520;28;19920;-70
2021/04/12 01:12:53;;;;;;;;;;;6.60;99.90;;;6.95;67.41;102200.22;5057699;28;19926;-70
2021/04/12 01:15:34;;;;;;;;;;;6.80;99.90;;;6.99;66.99;102200.34;5073118;28;19921;-70
2021/04/12 01:18:25;;;;;;;;;;;6.90;99.90;;;7.01;66.79;102197.75;5072913;28;20388;-70
2021/04/12 01:21:23;;;;;;;;;;;6.90;99.90;;;7.13;66.69;102208.66;5073145;28;20293;-70
2021/04/12 01:24:17;;;;;;;;;;;7.00;99.90;;;7.21;66.19;102197.53;5071317;28;19928;-70
2021/04/12 01:27:32;;;;;;;;;;;7.10;99.90;;;7.24;66.32;102212.50;5071668;28;19920;-70
2021/04/12 01:30:29;;;;;;;;;;;7.20;99.90;;;7.11;67.34;102205.09;5013132;28;19921;-70
2021/04/12 01:33:21;;;;;;;;;;;7.10;99.90;;;7.10;67.51;102216.47;5073258;28;19967;-70
2021/04/12 01:36:23;;;;;;;;;;;7.10;99.90;;;7.00;67.07;102195.97;5074890;28;19920;-70
2021/04/12 01:39:02;;;;;;;;;;;7.00;99.90;;;7.18;66.59;102221.13;5058914;28;19924;-70
2021/04/12 01:41:51;;;;;;;;;;;7.10;99.90;;;7.06;66.78;102228.66;5076327;28;19966;-70
2021/04/12 01:44:45;;;;;;;;;;;7.00;99.90;;;7.03;67.33;102232.88;5076368;28;20023;-70
2021/04/12 01:47:22;;;;;;;;;;;6.90;99.90;;;6.94;67.68;102229.97;5071458;28;19927;-70
2021/04/12 01:50:03;;;;;;;;;;;6.90;99.90;;;6.86;67.47;102227.09;5076070;28;20022;-70
2021/04/12 01:52:38;;;;;;;;;;;6.80;99.90;;;6.64;68.38;102200.06;5075995;28;20373;-70
2021/04/12 01:55:31;;;;;;;;;;;6.70;99.90;;;6.57;68.84;102219.09;5074935;28;19924;-70
2021/04/12 01:58:14;;;;;;;;;;;6.60;99.90;;;6.43;68.35;102244.91;5076153;28;19974;-70
2021/04/12 02:01:01;;;;;;;;;;;6.50;99.90;;;6.42;69.04;102243.16;5074559;28;20377;-70
2021/04/12 02:03:46;;;;;;;;;;;6.30;99.90;;;6.54;68.81;102240.94;5076046;28;19920;-70
2021/04/12 02:06:36;;;;;;;;;;;6.40;99.90;;;5.92;70.24;102248.34;5075956;28;19935;-70
2021/04/12 02:09:16;;;;;;;;;;;5.90;99.90;;;6.09;70.23;102262.97;5074444;28;19921;-70
2021/04/12 02:11:49;;;;;;;;;;;6.00;99.90;;;6.06;70.09;102221.72;5075873;28;19924;-70
2021/04/12 02:14:39;;;;;;;;;;;6.10;99.90;;;6.21;70.17;102252.91;5075657;28;20404;-70
2021/04/12 02:17:15;;;;;;;;;;;6.10;99.90;;;6.14;69.88;102250.88;5075760;28;19924;-70
2021/04/12 02:20:00;;;;;;;;;;;6.00;99.90;;;6.20;70.40;102259.00;5074238;28;19924;-70
2021/04/12 02:22:49;;;;;;;;;;;6.00;99.90;;;6.12;69.79;102258.72;5075678;28;19920;-70
2021/04/12 02:25:28;;;;;;;;;;;6.00;99.90;;;6.03;69.80;102241.75;5075526;28;19928;-70
2021/04/12 02:28:02;;;;;;;;;;;6.00;99.90;;;5.91;70.21;102263.19;5075390;28;19938;-70
2021/04/12 02:30:34;;;;;;;;;;;5.80;99.90;;;6.02;70.19;102267.09;5075341;28;20290;-70
2021/04/12 02:33:12;;;;;;;;;;;5.80;99.90;;;5.96;70.02;102263.38;5075319;28;20374;-70
2021/04/12 02:35:51;;;;;;;;;;;5.80;99.90;;;5.96;69.89;102271.25;5075368;28;19920;-69
2021/04/12 02:38:25;;;;;;;;;;;5.90;99.90;;;5.93;69.55;102269.41;5075423;28;20320;-70
2021/04/12 02:41:08;;;;;;;;;;;5.80;99.90;;;5.92;69.22;102275.47;5075352;28;19920;-70
2021/04/12 02:43:47;;;;;;;;;;;5.80;99.90;;;5.92;69.46;102274.59;5074902;28;20386;-70
2021/04/12 02:46:39;;;;;;;;;;;5.80;99.90;;;5.59;69.92;102268.97;5075076;28;19920;-70
2021/04/12 02:49:16;;;;;;;;;;;5.50;99.90;;;5.60;69.65;102270.72;5075068;28;19971;-70
2021/04/12 02:51:52;;;;;;;;;;;5.40;99.90;;;5.69;69.81;102260.56;5075120;28;20352;-70
2021/04/12 02:54:59;;;;;;;;;;;5.50;99.90;;;5.75;69.58;102266.06;5073797;28;19924;-70
2021/04/12 02:58:15;;;;;;;;;;;5.60;99.90;;;5.91;69.56;102271.06;5056493;28;19948;-70
2021/04/12 03:00:52;;;;;;;;;;;5.70;99.90;;;5.92;68.85;102275.47;5073721;28;19920;-70
2021/04/12 03:03:36;;;;;;;;;;;5.80;99.90;;;5.89;68.64;102262.25;5074586;28;19925;-70
2021/04/12 03:06:18;;;;;;;;;;;5.80;99.90;;;5.97;68.53;102268.69;5073765;28;19927;-70
2021/04/12 03:08:54;;;;;;;;;;;5.80;99.90;;;5.97;68.74;102267.78;5074678;28;19978;-70
2021/04/12 03:11:37;;;;;;;;;;;5.90;99.90;;;5.97;69.18;102275.66;5074980;28;19973;-69
2021/04/12 03:14:32;;;;;;;;;;;5.90;99.90;;;5.98;68.67;102275.69;5073471;28;19974;-70
2021/04/12 03:17:29;;;;;;;;;;;5.90;99.90;;;5.66;69.33;102285.81;5074612;28;19920;-70
2021/04/12 03:20:10;;;;;;;;;;;5.60;99.90;;;5.72;69.44;102279.06;5067408;28;19927;-70
2021/04/12 03:23:14;;;;;;;;;;;5.50;99.90;;;5.81;69.39;102279.41;5074323;28;19920;-70
2021/04/12 03:25:56;;;;;;;;;;;5.50;99.90;;;5.85;69.22;102277.81;5069438;28;20637;-69
2021/04/12 03:28:30;;;;;;;;;;;5.50;99.90;;;5.88;69.53;102264.81;5074406;28;20276;-69
2021/04/12 03:31:14;;;;;;;;;;;5.70;99.90;;;5.94;68.95;102279.06;5074418;28;19924;-70
2021/04/12 03:33:55;;;;;;;;;;;5.70;99.90;;;5.94;68.69;102278.19;5072943;28;19920;-70
2021/04/12 03:36:29;;;;;;;;;;;5.80;99.90;;;5.54;67.60;102181.28;5073981;28;19925;-70
2021/04/12 03:39:04;;;;;;;;;;;5.90;99.90;;;6.19;67.58;102281.72;5073629;28;19924;-70
2021/04/12 03:41:55;;;;;;;;;;;6.00;99.90;;;6.22;67.34;102287.09;5074286;28;19920;-70
2021/04/12 03:44:44;;;;;;;;;;;6.00;99.90;;;6.32;66.27;102277.81;5072415;28;20369;-69
2021/04/12 03:47:35;;;;;;;;;;;6.10;99.90;;;6.39;66.42;102275.44;5073830;28;20286;-70
2021/04/12 03:50:19;;;;;;;;;;;6.20;99.90;;;6.49;64.85;102286.28;5073968;28;19924;-70
2021/04/12 03:52:59;;;;;;;;;;;6.30;99.90;;;6.49;64.13;102288.91;5072498;28;19924;-70
2021/04/12 03:55:51;;;;;;;;;;;6.30;99.90;;;6.58;64.58;102282.22;5073208;28;19925;-70
2021/04/12 03:58:34;;;;;;;;;;;6.30;99.90;;;6.58;64.27;102281.34;5073664;28;20349;-70
2021/04/12 04:01:16;;;;;;;;;;;6.40;99.90;;;6.74;64.28;102296.78;5073749;28;20279;-70
2021/04/12 04:04:06;;;;;;;;;;;6.50;99.90;;;6.78;64.21;102293.44;5072265;28;19920;-69
2021/04/12 04:06:56;;;;;;;;;;;6.60;99.90;;;6.90;63.50;102297.38;5072350;28;20014;-70
2021/04/12 04:09:46;;;;;;;;;;;6.70;99.90;;;6.86;63.75;102300.75;5073735;28;20294;-70
2021/04/12 04:12:37;;;;;;;;;;;6.70;99.90;;;6.82;63.50;102287.44;5073395;28;19963;-70
2021/04/12 04:15:26;;;;;;;;;;;6.70;99.90;;;6.87;63.23;102288.50;5072101;28;19925;-70
2021/04/12 04:18:22;;;;;;;;;;;6.70;99.90;;;6.88;63.06;102298.16;5073507;28;19920;-70
2021/04/12 04:21:20;;;;;;;;;;;6.70;99.90;;;6.81;63.01;102298.81;5073525;28;20297;-70
2021/04/12 04:24:11;;;;;;;;;;;6.60;99.90;;;6.82;63.05;102297.94;5056007;28;19931;-70
2021/04/12 04:26:57;;;;;;;;;;;6.70;99.90;;;6.87;62.37;102306.91;5073301;28;19989;-70
2021/04/12 04:30:05;;;;;;;;;;;6.70;99.90;;;6.86;62.55;102308.63;5071807;28;19921;-70
2021/04/12 04:32:56;;;;;;;;;;;6.70;99.90;;;6.69;64.85;102306.28;5061784;28;19931;-70
2021/04/12 04:35:49;;;;;;;;;;;6.60;99.90;;;6.63;64.70;102306.97;5068830;28;19920;-70
2021/04/12 04:38:33;;;;;;;;;;;6.50;99.90;;;6.48;65.39;102310.78;5072970;28;19946;-70
2021/04/12 04:41:08;;;;;;;;;;;6.40;99.90;;;6.32;65.86;102294.50;5073021;28;19924;-70
2021/04/12 04:43:45;;;;;;;;;;;6.30;99.90;;;6.39;66.74;102311.34;5072833;28;19924;-70
2021/04/12 04:46:20;;;;;;;;;;;6.20;99.90;;;6.36;67.02;102312.16;5072014;28;19924;-70
2021/04/12 04:49:38;;;;;;;;;;;6.20;99.90;;;6.33;67.47;102322.53;5073072;28;20018;-70
2021/04/12 04:52:14;;;;;;;;;;;6.20;99.90;;;6.21;66.78;102318.59;5030869;28;20020;-70
2021/04/12 04:54:50;;;;;;;;;;;6.10;99.90;;;6.18;65.91;102316.72;5072034;28;20072;-70
2021/04/12 04:57:44;;;;;;;;;;;6.00;99.90;;;6.24;65.43;102330.09;5072928;28;19989;-70
2021/04/12 05:00:21;;;;;;;;;;;6.10;99.90;;;6.20;65.99;102336.06;5071756;28;19943;-70
2021/04/12 05:03:28;;;;;;;;;;;6.10;99.90;;;6.29;65.71;102339.03;5073071;28;19920;-70
2021/04/12 05:06:17;;;;;;;;;;;6.10;99.90;;;6.31;64.94;102337.34;5071888;28;19924;-70
2021/04/12 05:09:14;;;;;;;;;;;6.30;99.90;;;5.85;67.12;102368.00;5043638;28;19928;-70
2021/04/12 05:12:11;;;;;;;;;;;6.00;99.90;;;5.57;69.43;102375.59;5075641;28;19936;-70
2021/04/12 05:14:47;;;;;;;;;;;5.60;99.90;;;5.29;70.36;102344.72;5076649;28;19927;-70
2021/04/12 05:17:40;;;;;;;;;;;5.30;99.90;;;5.05;71.85;102383.03;5077162;28;19973;-70
2021/04/12 05:20:33;;;;;;;;;;;5.10;99.90;;;4.96;73.86;102401.03;5066919;28;20006;-70
2021/04/12 05:23:19;;;;;;;;;;;4.90;99.90;;;4.74;75.20;102403.56;5076437;28;19974;-70
2021/04/12 05:26:28;;;;;;;;;;;4.80;99.90;;;4.71;76.06;102407.75;5076762;28;19931;-71
2021/04/12 05:29:07;;;;;;;;;;;4.70;99.90;;;4.86;76.04;102416.31;5027694;28;19974;-70
2021/04/12 05:31:47;;;;;;;;;;;4.70;99.90;;;4.43;77.29;102408.28;5076343;28;19920;-70
2021/04/12 05:34:26;;;;;;;;;;;4.60;99.90;;;4.46;78.43;102430.25;5076409;28;20373;-69
2021/04/12 05:37:04;;;;;;;;;;;4.40;99.90;;;4.35;78.22;102425.38;5076327;28;19925;-70
2021/04/12 05:39:45;;;;;;;;;;;4.40;99.90;;;4.43;78.23;102434.47;5074953;28;19931;-69
2021/04/12 05:42:23;;;;;;;;;;;4.30;99.90;;;4.57;78.52;102439.50;5075059;28;19920;-70
2021/04/12 05:45:03;;;;;;;;;;;4.40;99.90;;;4.69;77.89;102435.63;5076406;28;20357;-69
2021/04/12 05:47:56;;;;;;;;;;;4.50;99.90;;;4.82;77.37;102435.34;5074832;28;20011;-70
2021/04/12 05:50:45;;;;;;;;;;;4.70;99.90;;;4.98;77.67;102432.53;5074602;28;19924;-69
2021/04/12 05:53:22;;;;;;;;;;;4.80;99.90;;;5.15;76.71;102435.06;5076094;28;19920;-70
2021/04/12 05:56:03;;;;;;;;;;;5.00;99.90;;;5.13;76.20;102409.63;5076030;28;19928;-70
2021/04/12 05:59:21;;;;;;;;;;;5.10;99.90;;;5.24;76.15;102426.69;5076077;28;20393;-69
2021/04/12 06:02:11;;;;;;;;;;;5.10;99.90;;;4.77;75.92;102427.28;5073365;28;19927;-70
2021/04/12 06:04:49;;;;;;;;;;;4.90;99.90;;;4.76;76.79;102429.84;5075716;28;20110;-70
2021/04/12 06:07:52;;;;;;;;;;;4.60;99.90;;;4.60;76.96;102425.63;5075870;28;19928;-70
2021/04/12 06:10:33;;;;;;;;;;;4.50;99.90;;;4.29;77.01;102397.19;5074454;28;20347;-70
2021/04/12 06:13:19;;;;;;;;;;;4.40;99.90;;;4.41;77.66;102457.94;5075607;28;19927;-70
2021/04/12 06:16:13;;;;;;;;;;;4.40;99.90;;;4.39;77.61;102443.00;5074036;28;19928;-70
2021/04/12 06:19:29;;;;;;;;;;;4.40;99.90;;;4.31;78.50;102441.75;5075251;28;19974;-70
2021/04/12 06:22:37;;;;;;;;;;;4.30;99.90;;;4.24;78.52;102442.31;5075605;28;19920;-70
2021/04/12 06:25:42;;;;;;;;;;;4.20;99.90;;;4.27;79.13;102445.97;5075329;28;20001;-70
2021/04/12 06:28:37;;;;;;;;;;;4.30;99.90;;;4.30;79.14;102459.19;5074215;28;19927;-70
2021/04/12 06:31:42;;;;;;;;;;;4.30;99.90;;;4.40;78.43;102465.75;5075295;28;20370;-69
2021/04/12 06:34:23;;;;;;;;;;;4.40;99.90;;;4.54;78.18;102469.91;5075150;28;19920;-70
2021/04/12 06:36:56;;;;;;;;;;;4.40;99.90;;;4.48;77.98;102464.38;5075245;28;19934;-70
2021/04/12 06:39:42;;;;;;;;;;;4.50;99.90;;;4.54;78.19;102454.19;5075592;28;19932;-70
2021/04/12 06:42:28;;;;;;;;;;;4.60;99.90;;;4.91;77.27;102480.31;5075112;28;20387;-70
2021/04/12 06:45:26;;;;;;;;;;;4.80;99.90;;;5.03;77.02;102486.09;5075246;28;19924;-70
2021/04/12 06:48:33;;;;;;;;;;;5.00;99.90;;;5.11;76.20;102487.34;5074992;28;20331;-70
2021/04/12 06:51:38;;;;;;;;;;;5.10;99.90;;;5.06;76.07;102481.88;5053290;28;20015;-70
2021/04/12 06:54:29;;;;;;;;;;;5.10;99.90;;;5.22;76.12;102470.31;5074843;28;19931;-70
2021/04/12 06:57:44;;;;;;;;;;;5.20;99.90;;;4.94;75.82;102462.06;5073551;28;20568;-70
2021/04/12 07:00:44;;;;;;;;;;;5.00;99.90;;;4.70;76.92;102461.91;5065209;28;19924;-70
2021/04/12 07:03:56;;;;;;;;;;;4.80;99.90;;;4.42;77.38;102467.63;5074822;28;19924;-70
2021/04/12 07:06:41;;;;;;;;;;;4.60;99.90;;;4.15;78.52;102468.06;5060910;28;19927;-70
2021/04/12 07:09:45;;;;;;;;;;;4.30;99.90;;;4.06;79.75;102471.16;5074616;28;20377;-70
2021/04/12 07:12:41;;;;;;;;;;;4.10;99.90;;;4.26;80.25;102483.44;5040357;28;19920;-69
2021/04/12 07:15:27;;;;;;;;;;;4.20;99.90;;;4.00;81.15;102446.38;5073272;28;20378;-70
2021/04/12 07:18:40;;;;;;;;;;;4.20;99.90;;;4.24;81.70;102481.59;5074571;28;19924;-70
2021/04/12 07:21:39;;;;;;;;;;;4.10;99.90;;;4.21;82.61;102508.53;5074391;28;20333;-70
2021/04/12 07:24:48;;;;;;;;;;;4.00;99.90;;;3.91;82.06;102396.25;5074186;28;19931;-70
2021/04/12 07:28:03;;;;;;;;;;;4.30;99.90;;;4.54;81.43;102506.59;5072913;28;19927;-70
2021/04/12 07:30:42;;;;;;;;;;;4.50;99.90;;;4.89;81.33;102509.09;5072272;28;20430;-70
2021/04/12 07:33:34;;;;;;;;;;;4.70;99.90;;;5.08;80.20;102519.56;5074386;28;19927;-70
2021/04/12 07:36:56;;;;;;;;;;;4.90;99.90;;;5.25;79.71;102525.53;5072767;28;20437;-70
2021/04/12 07:40:06;;;;;;;;;;;5.10;99.90;;;5.50;79.21;102536.25;5074320;28;20020;-70
2021/04/12 07:43:13;;;;;;;;;;;5.40;99.90;;;5.67;78.49;102543.09;5018992;28;19921;-70
2021/04/12 07:46:25;;;;;;;;;;;5.50;99.90;;;5.78;77.57;102533.06;5073945;28;19921;-70
2021/04/12 07:49:34;;;;;;;;;;;5.70;99.90;;;5.83;76.82;102532.44;5068954;28;19962;-70
2021/04/12 07:52:50;;;;;;;;;;;5.70;99.90;;;5.96;75.66;102532.09;5040834;28;20015;-71
2021/04/12 07:55:53;;;;;;;;;;;5.90;99.90;;;6.08;75.17;102540.50;5059602;28;19920;-70
2021/04/12 07:59:00;;;;;;;;;;;5.90;99.90;;;6.10;74.16;102533.56;5073828;28;20388;-70
2021/04/12 08:02:03;;;;;;;;;;;6.00;99.90;;;6.22;73.70;102554.19;5055189;28;19921;-70
2021/04/12 08:05:19;;;;;;;;;;;6.10;99.90;;;6.19;73.31;102575.09;5073525;28;19973;-70
2021/04/12 08:08:14;;;;;;;;;;;6.20;99.90;;;5.02;75.34;102583.94;5031632;28;20549;-70
2021/04/12 08:11:38;;;;;;;;;;;5.40;99.90;;;4.65;77.70;102583.03;5073613;28;19989;-70
2021/04/12 08:14:39;;;;;;;;;;;4.70;99.90;;;4.19;78.88;102586.13;5073587;28;20003;-70
2021/04/12 08:17:33;;;;;;;;;;;4.30;99.90;;;4.12;80.15;102581.38;5073464;28;19966;-70
2021/04/12 08:20:32;;;;;;;;;;;4.10;99.90;;;3.98;80.80;102587.69;5054434;28;20327;-70
2021/04/12 08:23:32;;;;;;;;;;;3.90;99.90;;;4.22;81.29;102585.38;5073500;28;19926;-70
2021/04/12 08:26:47;;;;;;;;;;;4.10;99.90;;;4.58;80.42;102574.94;5072965;28;19921;-70
2021/04/12 08:29:45;;;;;;;;;;;4.40;99.90;;;4.49;80.07;102545.66;5063574;28;19920;-69
2021/04/12 08:32:45;;;;;;;;;;;4.70;99.90;;;4.71;80.03;102584.25;5073209;28;19920;-70
2021/04/12 08:35:42;;;;;;;;;;;4.70;99.90;;;4.88;78.92;102591.16;5072787;28;19920;-70
2021/04/12 08:38:42;;;;;;;;;;;4.80;99.90;;;5.04;78.54;102584.91;5022914;28;20300;-70
2021/04/12 08:42:01;;;;;;;;;;;5.00;99.90;;;5.13;78.44;102583.56;5072687;28;19924;-69
2021/04/12 08:45:22;;;;;;;;;;;5.10;99.90;;;5.13;77.82;102561.72;5072938;28;19920;-70
2021/04/12 08:48:18;;;;;;;;;;;5.20;99.90;;;5.31;77.63;102573.00;5072944;28;19928;-70
2021/04/12 08:51:04;;;;;;;;;;;5.20;99.90;;;5.40;77.36;102570.81;5069050;28;19986;-70
2021/04/12 08:54:01;;;;;;;;;;;5.30;99.90;;;5.53;76.49;102568.75;5071365;28;19966;-70
2021/04/12 08:56:48;;;;;;;;;;;5.50;99.90;;;5.62;76.44;102578.75;5040376;28;19990;-71
2021/04/12 08:59:50;;;;;;;;;;;5.60;99.90;;;5.66;76.69;102561.41;5072915;28;19931;-70
2021/04/12 09:02:41;;;;;;;;;;;5.60;99.90;;;5.84;76.68;102564.84;5062737;28;19952;-70
2021/04/12 09:05:39;;;;;;;;;;;5.70;99.90;;;5.83;76.82;102534.13;5072989;28;19924;-70
2021/04/12 09:08:26;;;;;;;;;;;5.90;99.90;;;6.42;78.47;102569.03;5073041;28;19936;-70
2021/04/12 09:11:23;;;;;;;;;;;6.20;99.90;;;6.91;77.54;102570.06;5065702;28;20400;-70
2021/04/12 09:14:21;;;;;;;;;;;6.70;99.90;;;7.46;77.08;102575.59;5072790;28;19920;-71
2021/04/12 09:17:06;;;;;;;;;;;7.20;99.90;;;7.93;75.24;102587.78;5072500;28;20033;-71
2021/04/12 09:20:17;;;;;;;;;;;7.70;99.90;;;8.48;74.38;102580.00;5072754;28;19946;-71
2021/04/12 09:23:08;;;;;;;;;;;8.30;99.90;;;8.90;72.34;102589.22;5030477;28;19921;-71
2021/04/12 09:25:51;;;;;;;;;;;8.70;99.90;;;9.16;69.94;102582.03;5030432;28;19931;-72
2021/04/12 09:29:01;;;;;;;;;;;9.10;99.90;;;9.52;68.42;102604.22;5064073;28;19925;-71
2021/04/12 09:31:54;;;;;;;;;;;9.40;99.90;;;9.85;66.99;102606.00;5039615;28;20294;-71
2021/04/12 09:35:06;;;;;;;;;;;9.70;99.90;;;10.30;65.26;102608.94;5072429;28;19920;-71
2021/04/12 09:38:10;;;;;;;;;;;10.10;99.90;;;10.75;65.04;102615.34;5011696;28;19956;-71
2021/04/12 09:41:24;;;;;;;;;;;10.50;99.90;;;11.19;61.50;102610.13;5072249;28;19943;-71
2021/04/12 09:44:28;;;;;;;;;;;11.00;99.90;;;11.63;59.14;102622.53;5030184;28;19928;-71
2021/04/12 09:47:19;;;;;;;;;;;11.50;99.90;;;11.91;58.20;102621.28;5030587;28;19982;-71
2021/04/12 09:50:15;;;;;;;;;;;11.80;99.90;;;12.15;57.47;102627.94;5068643;28;20394;-71
2021/04/12 09:52:49;;;;;;;;;;;12.00;99.90;;;12.27;57.98;102628.13;5054357;28;19920;-71
2021/04/12 09:55:51;;;;;;;;;;;12.20;99.90;;;12.53;56.65;102625.91;5076130;28;19931;-71
2021/04/12 09:58:57;;;;;;;;;;;12.40;99.90;;;12.45;56.12;102633.75;5071984;28;19924;-71
2021/04/12 10:01:42;;;;;;;;;;;12.40;99.90;;;12.86;56.51;102626.44;5074758;28;20365;-70
2021/04/12 10:04:43;;;;;;;;;;;12.70;99.90;;;12.87;54.68;102620.25;5074336;28;19966;-70
2021/04/12 10:07:22;;;;;;;;;;;12.80;99.90;;;11.91;52.28;102621.28;5075777;28;19928;-70
2021/04/12 10:10:04;;;;;;;;;;;12.20;99.90;;;11.06;53.15;102631.91;5075681;28;19974;-70
2021/04/12 10:13:03;;;;;;;;;;;11.20;99.90;;;10.57;54.93;102628.13;5075775;28;19920;-71
2021/04/12 10:15:39;;;;;;;;;;;10.60;99.90;;;10.45;57.17;102619.91;5075587;28;20015;-70
2021/04/12 10:18:15;;;;;;;;;;;10.40;99.90;;;9.64;56.87;102623.06;5074478;28;20336;-70
2021/04/12 10:20:45;;;;;;;;;;;9.80;99.90;;;9.23;57.45;102620.97;5075597;28;19959;-70
2021/04/12 10:23:19;;;;;;;;;;;9.20;99.90;;;9.35;58.26;102613.41;5075340;28;19970;-70
2021/04/12 10:25:54;;;;;;;;;;;9.20;99.90;;;8.83;57.62;102592.50;5075718;28;19924;-70
2021/04/12 10:28:24;;;;;;;;;;;9.00;99.90;;;9.01;59.50;102624.72;5075345;28;19920;-71
2021/04/12 10:30:58;;;;;;;;;;;8.90;99.90;;;8.96;59.61;102621.06;5075719;28;19982;-70
2021/04/12 10:33:30;;;;;;;;;;;9.00;99.90;;;9.18;59.83;102630.50;5075381;28;19969;-70
2021/04/12 10:36:00;;;;;;;;;;;9.10;99.90;;;9.33;59.65;102630.97;5075308;28;19931;-70
2021/04/12 10:38:29;;;;;;;;;;;9.20;99.90;;;9.09;60.54;102607.38;5075459;28;19939;-70
2021/04/12 10:41:00;;;;;;;;;;;9.20;99.90;;;9.17;60.14;102621.69;5074081;28;19962;-70
2021/04/12 10:43:53;;;;;;;;;;;9.10;99.90;;;8.92;58.84;102613.91;5074998;28;20305;-70
2021/04/12 10:46:28;;;;;;;;;;;8.90;99.90;;;8.80;58.81;102589.78;5073707;28;20344;-70
2021/04/12 10:48:58;;;;;;;;;;;8.80;99.90;;;8.94;59.33;102622.75;5075518;28;19931;-70
2021/04/12 10:51:31;;;;;;;;;;;8.80;99.90;;;8.88;59.77;102634.00;5075164;28;19982;-70
2021/04/12 10:54:48;;;;;;;;;;;8.80;99.90;;;8.97;60.33;102613.19;5074741;28;19965;-70
2021/04/12 10:57:35;;;;;;;;;;;8.90;99.90;;;8.72;59.75;102615.94;5074743;28;19927;-69
2021/04/12 11:00:14;;;;;;;;;;;8.80;99.90;;;9.03;60.17;102620.38;5074883;28;19927;-70
2021/04/12 11:03:10;;;;;;;;;;;8.80;99.90;;;8.67;58.84;102604.31;5074673;28;19932;-70
2021/04/12 11:05:39;;;;;;;;;;;8.80;99.90;;;8.90;59.84;102616.47;5073564;28;19924;-69
2021/04/12 11:08:18;;;;;;;;;;;8.70;99.90;;;9.12;57.80;102612.72;5074680;28;19920;-70
2021/04/12 11:10:57;;;;;;;;;;;9.00;99.90;;;9.16;56.39;102611.97;5074685;28;19951;-70
2021/04/12 11:13:30;;;;;;;;;;;9.00;99.90;;;10.05;58.15;102619.75;5074596;28;19920;-70
2021/04/12 11:16:08;;;;;;;;;;;9.70;99.90;;;9.80;54.20;102628.78;5074317;28;19956;-70
2021/04/12 11:18:43;;;;;;;;;;;9.80;99.90;;;9.91;52.76;102624.66;5074295;28;19928;-70
2021/04/12 11:21:21;;;;;;;;;;;9.80;99.90;;;9.81;53.82;102629.69;5074456;28;19966;-70
2021/04/12 11:23:58;;;;;;;;;;;9.80;99.90;;;9.44;54.10;102630.41;5073080;28;20442;-70
2021/04/12 11:26:31;;;;;;;;;;;9.50;99.90;;;9.79;55.66;102631.38;5074346;28;19920;-70
2021/04/12 11:29:02;;;;;;;;;;;9.70;99.90;;;9.92;54.85;102649.34;5072875;28;19920;-70
2021/04/12 11:31:43;;;;;;;;;;;9.80;99.90;;;9.65;54.56;102641.59;5073990;28;19959;-70
2021/04/12 11:34:22;;;;;;;;;;;9.60;99.90;;;9.76;55.65;102631.28;5072715;28;19920;-70
2021/04/12 11:37:16;;;;;;;;;;;9.70;99.90;;;8.90;55.18;102508.28;5074522;28;19921;-70
2021/04/12 11:39:52;;;;;;;;;;;9.50;99.90;;;9.83;55.00;102644.69;5073993;28;19921;-70
2021/04/12 11:42:23;;;;;;;;;;;9.70;99.90;;;9.84;55.54;102625.38;5072630;28;19924;-70
2021/04/12 11:44:53;;;;;;;;;;;9.80;99.90;;;9.98;53.68;102649.53;5073714;28;19939;-70
2021/04/12 11:47:36;;;;;;;;;;;9.90;99.90;;;10.04;53.50;102650.56;5073813;28;19928;-69
2021/04/12 11:50:14;;;;;;;;;;;10.00;99.90;;;10.13;52.90;102644.66;5073721;28;19931;-70
2021/04/12 11:52:50;;;;;;;;;;;10.10;99.90;;;9.01;53.12;102535.88;5073581;28;19973;-70
2021/04/12 11:55:23;;;;;;;;;;;9.70;99.90;;;9.48;53.00;102629.66;5073068;28;19928;-69
2021/04/12 11:57:59;;;;;;;;;;;9.60;99.90;;;9.81;53.70;102656.13;5073886;28;19927;-70
2021/04/12 12:00:31;;;;;;;;;;;9.70;99.90;;;9.42;53.33;102661.16;5073818;28;19931;-70
2021/04/12 12:03:08;;;;;;;;;;;9.40;99.90;;;9.47;55.25;102658.63;5073503;28;19932;-70
2021/04/12 12:05:39;;;;;;;;;;;9.40;99.90;;;9.34;53.76;102646.84;5073170;28;19924;-70
2021/04/12 12:08:09;;;;;;;;;;;9.30;99.90;;;9.65;54.28;102681.22;5072340;28;19920;-70
2021/04/12 12:10:41;;;;;;;;;;;9.40;99.90;;;9.80;53.75;102667.53;5072383;28;19929;-70
2021/04/12 12:13:21;;;;;;;;;;;9.60;99.90;;;9.79;51.74;102668.38;5072168;28;20007;-70
2021/04/12 12:16:00;;;;;;;;;;;9.70;99.90;;;9.55;52.26;102662.41;5072785;28;19971;-70
2021/04/12 12:18:29;;;;;;;;;;;9.50;99.90;;;9.55;52.28;102675.63;5073250;28;19940;-68
2021/04/12 12:21:09;;;;;;;;;;;9.40;99.90;;;9.44;51.99;102675.31;5073110;28;19927;-68
2021/04/12 12:23:43;;;;;;;;;;;9.40;99.90;;;9.28;51.30;102681.00;5071951;28;19974;-69
2021/04/12 12:26:17;;;;;;;;;;;9.20;99.90;;;9.23;50.94;102648.28;5072987;28;20274;-68
2021/04/12 12:28:49;;;;;;;;;;;9.30;99.90;;;9.41;51.67;102683.13;5071888;28;19935;-68
2021/04/12 12:31:32;;;;;;;;;;;9.30;99.90;;;9.50;55.84;102694.00;5073322;28;20006;-68
2021/04/12 12:34:12;;;;;;;;;;;9.40;99.90;;;8.37;58.21;102570.81;5073204;28;20019;-68
2021/04/12 12:36:49;;;;;;;;;;;9.10;99.90;;;8.97;59.00;102702.00;5072927;28;19920;-68
2021/04/12 12:39:28;;;;;;;;;;;8.90;99.90;;;9.02;59.35;102700.41;5073196;28;20389;-68
2021/04/12 12:41:59;;;;;;;;;;;8.90;99.90;;;9.45;58.34;102702.59;5073033;28;19924;-68
2021/04/12 12:44:27;;;;;;;;;;;9.20;99.90;;;9.20;58.77;102700.97;5072829;28;20363;-68
2021/04/12 12:46:57;;;;;;;;;;;9.20;99.90;;;9.34;57.06;102704.94;5073196;28;20301;-68
2021/04/12 12:49:28;;;;;;;;;;;9.20;99.90;;;9.00;55.41;102660.78;5072822;28;19920;-68
2021/04/12 12:51:58;;;;;;;;;;;9.20;99.90;;;9.19;55.40;102708.88;5072842;28;20677;-68
2021/04/12 12:54:29;;;;;;;;;;;9.10;99.90;;;9.35;54.74;102711.13;5072900;28;19954;-68
2021/04/12 12:57:06;;;;;;;;;;;9.20;99.90;;;9.42;55.31;102716.63;5072852;28;19981;-70